sensor_id;sensor_type;location;lat;lon;timestamp;pressure;altitude;pressure_sealevel;temperature;humidity
60319;BME280;46163;52.306;5.634;2022-08-20T00:02:20;101434.69;;;24.04;62.46
60319;BME280;46163;52.306;5.634;2022-08-20T00:04:46;101430.31;;;24.03;62.32
60319;BME280;46163;52.306;5.634;2022-08-20T00:07:13;101433.06;;;24.03;62.27
60319;BME280;46163;52.306;5.634;2022-08-20T00:09:38;101434.94;;;24.02;62.21
60319;BME280;46163;52.306;5.634;2022-08-20T00:12:06;101432.53;;;24.01;62.14
60319;BME280;46163;52.306;5.634;2022-08-20T00:14:33;101427.38;;;23.99;62.20
60319;BME280;46163;52.306;5.634;2022-08-20T00:16:59;101419.22;;;23.99;62.22
60319;BME280;46163;52.306;5.634;2022-08-20T00:19:25;101414.88;;;23.98;62.11
60319;BME280;46163;52.306;5.634;2022-08-20T00:21:51;101416.50;;;23.99;62.29
60319;BME280;46163;52.306;5.634;2022-08-20T00:24:16;101414.88;;;23.98;62.34
60319;BME280;46163;52.306;5.634;2022-08-20T00:26:43;101425.75;;;23.98;62.15
60319;BME280;46163;52.306;5.634;2022-08-20T00:29:08;101424.09;;;23.97;62.17
60319;BME280;46163;52.306;5.634;2022-08-20T00:31:34;101422.19;;;23.97;62.17
60319;BME280;46163;52.306;5.634;2022-08-20T00:34:01;101432.53;;;23.95;62.05
60319;BME280;46163;52.306;5.634;2022-08-20T00:36:27;101427.91;;;23.96;62.12
60319;BME280;46163;52.306;5.634;2022-08-20T00:38:52;101423.56;;;23.95;62.29
60319;BME280;46163;52.306;5.634;2022-08-20T00:41:24;101431.69;;;23.95;62.25
60319;BME280;46163;52.306;5.634;2022-08-20T00:44:09;101426.53;;;23.93;62.10
60319;BME280;46163;52.306;5.634;2022-08-20T00:46:36;101429.28;;;23.93;62.12
60319;BME280;46163;52.306;5.634;2022-08-20T00:49:04;101437.41;;;23.93;62.23
60319;BME280;46163;52.306;5.634;2022-08-20T00:51:40;101433.06;;;23.92;62.21
60319;BME280;46163;52.306;5.634;2022-08-20T00:54:20;101442.03;;;23.93;62.18
60319;BME280;46163;52.306;5.634;2022-08-20T00:56:51;101443.94;;;23.92;62.09
60319;BME280;46163;52.306;5.634;2022-08-20T00:59:23;101437.69;;;23.92;62.15
60319;BME280;46163;52.306;5.634;2022-08-20T01:01:50;101437.69;;;23.92;62.17
60319;BME280;46163;52.306;5.634;2022-08-20T01:04:16;101436.91;;;23.91;62.06
60319;BME280;46163;52.306;5.634;2022-08-20T01:06:42;101439.59;;;23.91;62.06
60319;BME280;46163;52.306;5.634;2022-08-20T01:09:44;101441.50;;;23.91;62.11
60319;BME280;46163;52.306;5.634;2022-08-20T01:12:12;101431.75;;;23.90;61.79
60319;BME280;46163;52.306;5.634;2022-08-20T01:14:44;101435.50;;;23.89;62.08
60319;BME280;46163;52.306;5.634;2022-08-20T01:17:13;101432.78;;;23.89;61.73
60319;BME280;46163;52.306;5.634;2022-08-20T01:20:16;101446.38;;;23.89;61.83
60319;BME280;46163;52.306;5.634;2022-08-20T01:23:02;101444.75;;;23.88;61.86
60319;BME280;46163;52.306;5.634;2022-08-20T01:31:11;101441.22;;;23.87;61.91
60319;BME280;46163;52.306;5.634;2022-08-20T01:33:38;101446.94;;;23.86;62.08
60319;BME280;46163;52.306;5.634;2022-08-20T01:36:04;101444.22;;;23.86;61.74
60319;BME280;46163;52.306;5.634;2022-08-20T01:38:32;101446.13;;;23.85;62.09
60319;BME280;46163;52.306;5.634;2022-08-20T01:43:39;101442.59;;;23.85;62.00
60319;BME280;46163;52.306;5.634;2022-08-20T01:46:07;101436.34;;;23.84;61.71
60319;BME280;46163;52.306;5.634;2022-08-20T01:48:35;101436.63;;;23.83;61.88
60319;BME280;46163;52.306;5.634;2022-08-20T01:51:27;101448.31;;;23.83;61.77
60319;BME280;46163;52.306;5.634;2022-08-20T01:53:56;101440.16;;;23.83;61.76
60319;BME280;46163;52.306;5.634;2022-08-20T01:56:26;101446.69;;;23.82;61.77
60319;BME280;46163;52.306;5.634;2022-08-20T01:58:54;101456.47;;;23.83;61.98
60319;BME280;46163;52.306;5.634;2022-08-20T02:01:36;101445.88;;;23.82;61.78
60319;BME280;46163;52.306;5.634;2022-08-20T02:04:04;101448.59;;;23.82;61.88
60319;BME280;46163;52.306;5.634;2022-08-20T02:06:32;101440.69;;;23.80;61.71
60319;BME280;46163;52.306;5.634;2022-08-20T02:09:02;101453.47;;;23.80;62.01
60319;BME280;46163;52.306;5.634;2022-08-20T02:11:30;101447.22;;;23.79;62.00
60319;BME280;46163;52.306;5.634;2022-08-20T02:13:57;101443.69;;;23.79;61.89
60319;BME280;46163;52.306;5.634;2022-08-20T02:16:27;101446.41;;;23.79;61.52
60319;BME280;46163;52.306;5.634;2022-08-20T02:19:07;101452.94;;;23.78;61.61
60319;BME280;46163;52.306;5.634;2022-08-20T02:21:38;101449.13;;;23.79;61.92
60319;BME280;46163;52.306;5.634;2022-08-20T02:24:05;101448.31;;;23.78;61.85
60319;BME280;46163;52.306;5.634;2022-08-20T02:26:32;101453.22;;;23.76;61.57
60319;BME280;46163;52.306;5.634;2022-08-20T02:28:58;101445.88;;;23.77;61.70
60319;BME280;46163;52.306;5.634;2022-08-20T02:31:24;101447.25;;;23.74;61.81
60319;BME280;46163;52.306;5.634;2022-08-20T02:33:50;101453.22;;;23.76;61.57
60319;BME280;46163;52.306;5.634;2022-08-20T02:36:17;101452.41;;;23.76;61.93
60319;BME280;46163;52.306;5.634;2022-08-20T02:38:43;101452.69;;;23.74;61.50
60319;BME280;46163;52.306;5.634;2022-08-20T02:41:10;101450.78;;;23.75;61.57
60319;BME280;46163;52.306;5.634;2022-08-20T02:43:36;101455.41;;;23.74;61.58
60319;BME280;46163;52.306;5.634;2022-08-20T02:46:03;101457.31;;;23.74;61.52
60319;BME280;46163;52.306;5.634;2022-08-20T02:48:29;101454.03;;;23.72;61.79
60319;BME280;46163;52.306;5.634;2022-08-20T02:51:03;101460.31;;;23.72;61.76
60319;BME280;46163;52.306;5.634;2022-08-20T02:53:34;101469.28;;;23.73;61.58
60319;BME280;46163;52.306;5.634;2022-08-20T02:56:00;101469.50;;;23.71;61.61
60319;BME280;46163;52.306;5.634;2022-08-20T02:58:26;101470.34;;;23.72;61.87
60319;BME280;46163;52.306;5.634;2022-08-20T03:00:55;101455.13;;;23.71;61.56
60319;BME280;46163;52.306;5.634;2022-08-20T03:03:21;101450.78;;;23.69;61.49
60319;BME280;46163;52.306;5.634;2022-08-20T03:05:51;101456.22;;;23.69;61.80
60319;BME280;46163;52.306;5.634;2022-08-20T03:08:18;101462.47;;;23.70;61.62
60319;BME280;46163;52.306;5.634;2022-08-20T03:10:46;101457.31;;;23.68;61.53
60319;BME280;46163;52.306;5.634;2022-08-20T03:13:13;101464.34;;;23.69;61.62
60319;BME280;46163;52.306;5.634;2022-08-20T03:15:42;101454.59;;;23.68;61.53
60319;BME280;46163;52.306;5.634;2022-08-20T03:18:09;101454.59;;;23.68;61.47
60319;BME280;46163;52.306;5.634;2022-08-20T03:20:35;101457.56;;;23.67;61.67
60319;BME280;46163;52.306;5.634;2022-08-20T03:29:36;101451.59;;;23.65;61.58
60319;BME280;46163;52.306;5.634;2022-08-20T03:32:01;101449.72;;;23.65;61.63
60319;BME280;46163;52.306;5.634;2022-08-20T03:34:28;101456.22;;;23.64;61.41
60319;BME280;46163;52.306;5.634;2022-08-20T03:36:53;101445.88;;;23.61;61.56
60319;BME280;46163;52.306;5.634;2022-08-20T03:39:19;101455.41;;;23.64;61.61
60319;BME280;46163;52.306;5.634;2022-08-20T03:41:44;101452.69;;;23.64;61.36
60319;BME280;46163;52.306;5.634;2022-08-20T03:44:10;101450.22;;;23.62;61.72
60319;BME280;46163;52.306;5.634;2022-08-20T03:46:36;101460.03;;;23.63;61.41
60319;BME280;46163;52.306;5.634;2022-08-20T03:49:03;101462.75;;;23.63;61.54
60319;BME280;46163;52.306;5.634;2022-08-20T03:51:30;101465.72;;;23.62;61.54
60319;BME280;46163;52.306;5.634;2022-08-20T03:53:56;101469.25;;;23.62;61.46
60319;BME280;46163;52.306;5.634;2022-08-20T03:56:22;101471.16;;;23.62;61.57
60319;BME280;46163;52.306;5.634;2022-08-20T03:58:47;101475.78;;;23.61;61.57
60319;BME280;46163;52.306;5.634;2022-08-20T04:01:13;101481.22;;;23.61;61.51
60319;BME280;46163;52.306;5.634;2022-08-20T04:03:39;101477.41;;;23.62;61.26
60319;BME280;46163;52.306;5.634;2022-08-20T04:06:05;101461.91;;;23.58;61.34
60319;BME280;46163;52.306;5.634;2022-08-20T04:08:31;101467.09;;;23.59;61.24
60319;BME280;46163;52.306;5.634;2022-08-20T04:10:59;101470.88;;;23.58;61.32
60319;BME280;46163;52.306;5.634;2022-08-20T04:13:27;101459.19;;;23.58;61.52
60319;BME280;46163;52.306;5.634;2022-08-20T04:16:01;101467.63;;;23.56;61.31
60319;BME280;46163;52.306;5.634;2022-08-20T04:18:29;101465.72;;;23.57;61.31
60319;BME280;46163;52.306;5.634;2022-08-20T04:20:54;101469.50;;;23.56;61.39
60319;BME280;46163;52.306;5.634;2022-08-20T04:23:21;101472.22;;;23.56;61.32
60319;BME280;46163;52.306;5.634;2022-08-20T04:25:47;101473.03;;;23.56;61.71
60319;BME280;46163;52.306;5.634;2022-08-20T04:28:18;101479.56;;;23.55;61.24
60319;BME280;46163;52.306;5.634;2022-08-20T04:30:56;101472.75;;;23.53;61.35
60319;BME280;46163;52.306;5.634;2022-08-20T04:33:22;101480.63;;;23.54;61.41
60319;BME280;46163;52.306;5.634;2022-08-20T04:35:50;101472.50;;;23.49;61.17
60319;BME280;46163;52.306;5.634;2022-08-20T04:38:18;101481.72;;;23.53;61.38
60319;BME280;46163;52.306;5.634;2022-08-20T04:41:03;101489.06;;;23.53;61.55
60319;BME280;46163;52.306;5.634;2022-08-20T04:43:32;101493.69;;;23.52;61.28
60319;BME280;46163;52.306;5.634;2022-08-20T04:46:19;101485.00;;;23.50;61.42
60319;BME280;46163;52.306;5.634;2022-08-20T04:48:45;101485.81;;;23.51;61.46
60319;BME280;46163;52.306;5.634;2022-08-20T04:51:10;101489.88;;;23.48;61.57
60319;BME280;46163;52.306;5.634;2022-08-20T04:53:56;101495.03;;;23.50;61.08
60319;BME280;46163;52.306;5.634;2022-08-20T04:56:27;101504.28;;;23.49;61.28
60319;BME280;46163;52.306;5.634;2022-08-20T04:58:56;101505.09;;;23.49;61.35
60319;BME280;46163;52.306;5.634;2022-08-20T05:01:21;101507.00;;;23.49;61.08
60319;BME280;46163;52.306;5.634;2022-08-20T05:04:07;101502.66;;;23.48;61.24
60319;BME280;46163;52.306;5.634;2022-08-20T05:06:32;101505.38;;;23.48;61.14
60319;BME280;46163;52.306;5.634;2022-08-20T05:09:14;101508.09;;;23.48;61.41
60319;BME280;46163;52.306;5.634;2022-08-20T05:11:39;101510.25;;;23.46;61.17
60319;BME280;46163;52.306;5.634;2022-08-20T05:14:07;101504.00;;;23.45;61.39
60319;BME280;46163;52.306;5.634;2022-08-20T05:16:37;101514.31;;;23.43;61.20
60319;BME280;46163;52.306;5.634;2022-08-20T05:19:06;101521.38;;;23.44;61.28
60319;BME280;46163;52.306;5.634;2022-08-20T05:21:32;101521.66;;;23.42;61.38
60319;BME280;46163;52.306;5.634;2022-08-20T05:23:59;101520.84;;;23.42;61.18
60319;BME280;46163;52.306;5.634;2022-08-20T05:26:25;101521.94;;;23.41;61.00
60319;BME280;46163;52.306;5.634;2022-08-20T05:28:51;101520.03;;;23.41;61.14
60319;BME280;46163;52.306;5.634;2022-08-20T05:31:16;101530.06;;;23.41;61.14
60319;BME280;46163;52.306;5.634;2022-08-20T05:33:42;101529.25;;;23.40;61.06
60319;BME280;46163;52.306;5.634;2022-08-20T05:36:07;101524.66;;;23.41;61.12
60319;BME280;46163;52.306;5.634;2022-08-20T05:38:34;101528.44;;;23.40;61.19
60319;BME280;46163;52.306;5.634;2022-08-20T05:41:01;101521.38;;;23.39;61.13
60319;BME280;46163;52.306;5.634;2022-08-20T05:43:27;101537.69;;;23.39;61.24
60319;BME280;46163;52.306;5.634;2022-08-20T05:45:53;101530.63;;;23.38;61.25
60319;BME280;46163;52.306;5.634;2022-08-20T05:48:21;101531.44;;;23.38;61.29
60319;BME280;46163;52.306;5.634;2022-08-20T05:50:49;101536.06;;;23.38;61.21
60319;BME280;46163;52.306;5.634;2022-08-20T05:53:16;101537.69;;;23.39;61.13
60319;BME280;46163;52.306;5.634;2022-08-20T05:55:42;101539.59;;;23.38;61.12
60319;BME280;46163;52.306;5.634;2022-08-20T05:58:28;101537.69;;;23.39;60.92
60319;BME280;46163;52.306;5.634;2022-08-20T06:00:54;101538.50;;;23.39;61.02
60319;BME280;46163;52.306;5.634;2022-08-20T06:03:20;101543.13;;;23.39;60.97
60319;BME280;46163;52.306;5.634;2022-08-20T06:06:05;101534.97;;;23.39;61.02
60319;BME280;46163;52.306;5.634;2022-08-20T06:08:31;101548.56;;;23.39;61.25
60319;BME280;46163;52.306;5.634;2022-08-20T06:10:57;101546.91;;;23.38;61.05
60319;BME280;46163;52.306;5.634;2022-08-20T06:13:23;101541.50;;;23.38;61.07
60319;BME280;46163;52.306;5.634;2022-08-20T06:15:49;101546.66;;;23.39;61.02
60319;BME280;46163;52.306;5.634;2022-08-20T06:18:15;101539.59;;;23.38;60.98
60319;BME280;46163;52.306;5.634;2022-08-20T06:20:41;101548.56;;;23.39;60.86
60319;BME280;46163;52.306;5.634;2022-08-20T06:23:07;101552.63;;;23.41;61.02
60319;BME280;46163;52.306;5.634;2022-08-20T06:25:33;101548.00;;;23.42;60.80
60319;BME280;46163;52.306;5.634;2022-08-20T06:28:00;101552.34;;;23.43;60.73
60319;BME280;46163;52.306;5.634;2022-08-20T06:30:26;101554.78;;;23.45;60.87
60319;BME280;46163;52.306;5.634;2022-08-20T06:32:51;101552.34;;;23.43;60.73
60319;BME280;46163;52.306;5.634;2022-08-20T06:35:17;101546.91;;;23.43;60.56
60319;BME280;46163;52.306;5.634;2022-08-20T06:37:43;101549.63;;;23.43;60.73
60319;BME280;46163;52.306;5.634;2022-08-20T06:40:18;101546.41;;;23.46;60.82
60319;BME280;46163;52.306;5.634;2022-08-20T06:42:44;101558.31;;;23.45;60.61
60319;BME280;46163;52.306;5.634;2022-08-20T06:45:11;101547.19;;;23.41;60.45
60319;BME280;46163;52.306;5.634;2022-08-20T06:47:41;101558.31;;;23.45;60.50
60319;BME280;46163;52.306;5.634;2022-08-20T06:50:13;101557.78;;;23.43;60.49
60319;BME280;46163;52.306;5.634;2022-08-20T06:52:40;101562.94;;;23.45;60.49
60319;BME280;46163;52.306;5.634;2022-08-20T06:55:08;101555.88;;;23.44;60.67
60319;BME280;46163;52.306;5.634;2022-08-20T06:57:35;101564.03;;;23.44;60.47
60319;BME280;46163;52.306;5.634;2022-08-20T07:00:04;101565.94;;;23.43;60.82
60319;BME280;46163;52.306;5.634;2022-08-20T07:02:31;101561.84;;;23.40;60.22
60319;BME280;46163;52.306;5.634;2022-08-20T07:04:58;101573.25;;;23.42;60.28
60319;BME280;46163;52.306;5.634;2022-08-20T07:07:23;101566.47;;;23.40;60.56
60319;BME280;46163;52.306;5.634;2022-08-20T07:09:57;101565.94;;;23.43;60.43
60319;BME280;46163;52.306;5.634;2022-08-20T07:12:23;101576.78;;;23.43;60.54
60319;BME280;46163;52.306;5.634;2022-08-20T07:14:51;101576.28;;;23.46;60.40
60319;BME280;46163;52.306;5.634;2022-08-20T07:17:17;101574.38;;;23.47;60.29
60319;BME280;46163;52.306;5.634;2022-08-20T07:19:42;101576.81;;;23.48;60.25
60319;BME280;46163;52.306;5.634;2022-08-20T07:22:09;101577.91;;;23.47;60.36
60319;BME280;46163;52.306;5.634;2022-08-20T07:24:35;101577.91;;;23.47;60.23
60319;BME280;46163;52.306;5.634;2022-08-20T07:27:00;101577.91;;;23.47;60.30
60319;BME280;46163;52.306;5.634;2022-08-20T07:29:26;101574.91;;;23.49;60.27
60319;BME280;46163;52.306;5.634;2022-08-20T07:32:11;101576.81;;;23.53;60.37
60319;BME280;46163;52.306;5.634;2022-08-20T07:34:55;101580.09;;;23.55;60.23
60319;BME280;46163;52.306;5.634;2022-08-20T07:37:20;101556.97;;;23.42;60.09
60319;BME280;46163;52.306;5.634;2022-08-20T07:39:50;101566.22;;;23.52;59.97
60319;BME280;46163;52.306;5.634;2022-08-20T07:42:17;101582.81;;;23.60;60.05
60319;BME280;46163;52.306;5.634;2022-08-20T07:44:43;101585.28;;;23.62;60.04
60319;BME280;46163;52.306;5.634;2022-08-20T07:47:10;101578.75;;;23.63;59.77
60319;BME280;46163;52.306;5.634;2022-08-20T07:49:37;101585.28;;;23.62;59.75
60319;BME280;46163;52.306;5.634;2022-08-20T07:52:04;101587.19;;;23.61;59.66
60319;BME280;46163;52.306;5.634;2022-08-20T07:54:29;101580.13;;;23.60;59.54
60319;BME280;46163;52.306;5.634;2022-08-20T07:56:59;101589.91;;;23.66;59.78
60319;BME280;46163;52.306;5.634;2022-08-20T07:59:28;101588.00;;;23.67;59.52
60319;BME280;46163;52.306;5.634;2022-08-20T08:01:53;101593.72;;;23.71;59.28
60319;BME280;46163;52.306;5.634;2022-08-20T08:04:21;101590.44;;;23.68;59.39
60319;BME280;46163;52.306;5.634;2022-08-20T08:06:49;101586.66;;;23.69;59.56
60319;BME280;46163;52.306;5.634;2022-08-20T08:09:18;101590.75;;;23.72;59.49
60319;BME280;46163;52.306;5.634;2022-08-20T08:11:46;101596.72;;;23.74;59.56
60319;BME280;46163;52.306;5.634;2022-08-20T08:14:20;101596.19;;;23.72;59.65
60319;BME280;46163;52.306;5.634;2022-08-20T08:16:48;101588.56;;;23.74;59.74
60319;BME280;46163;52.306;5.634;2022-08-20T08:19:19;101594.25;;;23.78;59.82
60319;BME280;46163;52.306;5.634;2022-08-20T08:21:45;101595.06;;;23.78;59.40
60319;BME280;46163;52.306;5.634;2022-08-20T08:24:11;101601.63;;;23.82;59.51
60319;BME280;46163;52.306;5.634;2022-08-20T08:26:40;101588.31;;;23.81;59.66
60319;BME280;46163;52.306;5.634;2022-08-20T08:29:05;101596.47;;;23.81;59.71
60319;BME280;46163;52.306;5.634;2022-08-20T08:31:33;101598.63;;;23.84;59.59
60319;BME280;46163;52.306;5.634;2022-08-20T08:33:59;101602.19;;;23.89;59.38
60319;BME280;46163;52.306;5.634;2022-08-20T08:36:24;101605.72;;;23.90;59.30
60319;BME280;46163;52.306;5.634;2022-08-20T08:38:51;101611.69;;;23.92;58.46
60319;BME280;46163;52.306;5.634;2022-08-20T08:41:33;101601.34;;;23.89;57.87
60319;BME280;46163;52.306;5.634;2022-08-20T08:44:10;101608.69;;;23.93;57.63
60319;BME280;46163;52.306;5.634;2022-08-20T08:46:43;101607.84;;;23.88;56.29
60319;BME280;46163;52.306;5.634;2022-08-20T08:49:16;101617.09;;;23.87;55.41
60319;BME280;46163;52.306;5.634;2022-08-20T08:54:46;101600.00;;;23.81;55.09
60319;BME280;46163;52.306;5.634;2022-08-20T08:57:15;101608.13;;;23.86;54.49
60319;BME280;46163;52.306;5.634;2022-08-20T09:00:08;101626.34;;;23.96;55.21
60319;BME280;46163;52.306;5.634;2022-08-20T09:02:37;101624.19;;;23.98;55.41
60319;BME280;46163;52.306;5.634;2022-08-20T09:05:13;101621.22;;;24.00;55.59
60319;BME280;46163;52.306;5.634;2022-08-20T09:07:41;101624.19;;;24.08;55.64
60319;BME280;46163;52.306;5.634;2022-08-20T09:10:16;101622.00;;;24.10;55.68
60319;BME280;46163;52.306;5.634;2022-08-20T09:12:43;101627.44;;;24.10;55.95
60319;BME280;46163;52.306;5.634;2022-08-20T09:15:09;101633.44;;;24.12;55.80
60319;BME280;46163;52.306;5.634;2022-08-20T09:17:34;101630.72;;;24.17;55.66
60319;BME280;46163;52.306;5.634;2022-08-20T09:20:06;101626.09;;;24.18;55.98
60319;BME280;46163;52.306;5.634;2022-08-20T09:22:33;101617.66;;;24.19;55.91
60319;BME280;46163;52.306;5.634;2022-08-20T09:24:59;101626.88;;;24.23;55.89
60319;BME280;46163;52.306;5.634;2022-08-20T09:27:27;101628.28;;;24.26;55.84
60319;BME280;46163;52.306;5.634;2022-08-20T09:29:53;101618.22;;;24.27;55.87
60319;BME280;46163;52.306;5.634;2022-08-20T09:32:21;101612.75;;;24.27;55.75
60319;BME280;46163;52.306;5.634;2022-08-20T09:34:49;101616.03;;;24.29;55.73
60319;BME280;46163;52.306;5.634;2022-08-20T09:37:26;101617.13;;;24.28;55.90
60319;BME280;46163;52.306;5.634;2022-08-20T09:39:54;101615.50;;;24.32;55.96
60319;BME280;46163;52.306;5.634;2022-08-20T09:42:23;101620.66;;;24.28;56.12
60319;BME280;46163;52.306;5.634;2022-08-20T09:44:52;101617.38;;;24.26;55.89
60319;BME280;46163;52.306;5.634;2022-08-20T09:47:17;101617.38;;;24.31;56.14
60319;BME280;46163;52.306;5.634;2022-08-20T09:49:44;101624.19;;;24.39;55.85
60319;BME280;46163;52.306;5.634;2022-08-20T09:52:20;101623.91;;;24.40;55.76
60319;BME280;46163;52.306;5.634;2022-08-20T09:54:50;101621.19;;;24.45;55.55
60319;BME280;46163;52.306;5.634;2022-08-20T09:57:19;101614.94;;;24.45;55.70
60319;BME280;46163;52.306;5.634;2022-08-20T09:59:47;101620.91;;;24.47;55.85
60319;BME280;46163;52.306;5.634;2022-08-20T10:02:17;101619.28;;;24.41;55.92
60319;BME280;46163;52.306;5.634;2022-08-20T10:04:45;101626.38;;;24.42;55.95
60319;BME280;46163;52.306;5.634;2022-08-20T10:07:10;101595.91;;;24.19;56.00
60319;BME280;46163;52.306;5.634;2022-08-20T10:09:36;101632.34;;;24.39;56.09
60319;BME280;46163;52.306;5.634;2022-08-20T10:12:03;101622.28;;;24.39;56.15
60319;BME280;46163;52.306;5.634;2022-08-20T10:14:28;101610.31;;;24.40;55.74
60319;BME280;46163;52.306;5.634;2022-08-20T10:16:56;101626.66;;;24.50;55.83
60319;BME280;46163;52.306;5.634;2022-08-20T10:19:29;101619.56;;;24.55;55.67
60319;BME280;46163;52.306;5.634;2022-08-20T10:21:55;101622.00;;;24.61;55.77
60319;BME280;46163;52.306;5.634;2022-08-20T10:24:21;101625.25;;;24.63;55.58
60319;BME280;46163;52.306;5.634;2022-08-20T10:26:46;101619.00;;;24.68;55.30
60319;BME280;46163;52.306;5.634;2022-08-20T10:29:13;101621.44;;;24.64;55.07
60319;BME280;46163;52.306;5.634;2022-08-20T10:31:39;101633.94;;;24.65;54.95
60319;BME280;46163;52.306;5.634;2022-08-20T10:34:06;101633.94;;;24.65;54.89
60319;BME280;46163;52.306;5.634;2022-08-20T10:36:31;101630.69;;;24.68;54.50
60319;BME280;46163;52.306;5.634;2022-08-20T10:38:59;101633.91;;;24.75;54.57
60319;BME280;46163;52.306;5.634;2022-08-20T10:41:27;101630.66;;;24.78;54.48
60319;BME280;46163;52.306;5.634;2022-08-20T10:43:54;101621.41;;;24.79;54.29
60319;BME280;46163;52.306;5.634;2022-08-20T10:46:22;101625.75;;;24.86;54.22
60319;BME280;46163;52.306;5.634;2022-08-20T10:48:48;101631.72;;;24.88;54.28
60319;BME280;46163;52.306;5.634;2022-08-20T10:51:13;101629.00;;;24.88;53.83
60319;BME280;46163;52.306;5.634;2022-08-20T10:53:38;101630.88;;;24.97;53.50
60319;BME280;46163;52.306;5.634;2022-08-20T10:56:04;101628.69;;;24.99;53.65
60319;BME280;46163;52.306;5.634;2022-08-20T10:58:29;101630.03;;;25.02;53.33
60319;BME280;46163;52.306;5.634;2022-08-20T11:00:57;101627.56;;;25.00;53.13
60319;BME280;46163;52.306;5.634;2022-08-20T11:03:23;101622.69;;;25.07;52.91
60319;BME280;46163;52.306;5.634;2022-08-20T11:05:48;101626.50;;;25.06;53.06
60319;BME280;46163;52.306;5.634;2022-08-20T11:08:15;101633.88;;;25.06;53.29
60319;BME280;46163;52.306;5.634;2022-08-20T11:10:41;101624.34;;;25.03;53.29
60319;BME280;46163;52.306;5.634;2022-08-20T11:13:07;101619.16;;;25.07;53.29
60319;BME280;46163;52.306;5.634;2022-08-20T11:15:35;101617.50;;;25.01;53.27
60319;BME280;46163;52.306;5.634;2022-08-20T11:18:01;101630.56;;;25.09;52.94
60319;BME280;46163;52.306;5.634;2022-08-20T11:20:27;101621.88;;;25.07;52.89
60319;BME280;46163;52.306;5.634;2022-08-20T11:22:53;101634.91;;;25.15;52.98
60319;BME280;46163;52.306;5.634;2022-08-20T11:25:21;101627.28;;;25.17;53.05
60319;BME280;46163;52.306;5.634;2022-08-20T11:27:48;101625.94;;;25.15;52.81
60319;BME280;46163;52.306;5.634;2022-08-20T11:30:16;101634.34;;;25.23;52.55
60319;BME280;46163;52.306;5.634;2022-08-20T11:32:42;101616.66;;;25.21;52.60
60319;BME280;46163;52.306;5.634;2022-08-20T11:35:08;101620.69;;;25.28;52.39
60319;BME280;46163;52.306;5.634;2022-08-20T11:37:33;101624.81;;;25.21;52.44
60319;BME280;46163;52.306;5.634;2022-08-20T11:39:59;101630.50;;;25.29;52.42
60319;BME280;46163;52.306;5.634;2022-08-20T11:42:24;101633.75;;;25.26;52.49
60319;BME280;46163;52.306;5.634;2022-08-20T11:44:52;101648.75;;;25.29;52.29
60319;BME280;46163;52.306;5.634;2022-08-20T11:47:26;101640.59;;;25.24;52.22
60319;BME280;46163;52.306;5.634;2022-08-20T11:50:03;101646.31;;;25.22;52.45
60319;BME280;46163;52.306;5.634;2022-08-20T11:52:29;101647.94;;;25.23;52.48
60319;BME280;46163;52.306;5.634;2022-08-20T11:54:58;101638.97;;;25.23;52.11
60319;BME280;46163;52.306;5.634;2022-08-20T11:57:27;101642.78;;;25.22;52.33
60319;BME280;46163;52.306;5.634;2022-08-20T11:59:58;101649.34;;;25.21;52.29
60319;BME280;46163;52.306;5.634;2022-08-20T12:02:24;101632.72;;;25.22;52.42
60319;BME280;46163;52.306;5.634;2022-08-20T12:04:49;101637.59;;;25.25;52.36
60319;BME280;46163;52.306;5.634;2022-08-20T12:07:24;101626.41;;;25.27;52.32
60319;BME280;46163;52.306;5.634;2022-08-20T12:09:51;101618.22;;;25.27;52.08
60319;BME280;46163;52.306;5.634;2022-08-20T12:12:18;101621.75;;;25.32;52.08
60319;BME280;46163;52.306;5.634;2022-08-20T12:14:45;101630.16;;;25.36;51.99
60319;BME280;46163;52.306;5.634;2022-08-20T12:17:26;101622.81;;;25.36;52.17
60319;BME280;46163;52.306;5.634;2022-08-20T12:20:15;101608.38;;;25.36;51.84
60319;BME280;46163;52.306;5.634;2022-08-20T12:22:47;101620.88;;;25.42;51.15
60319;BME280;46163;52.306;5.634;2022-08-20T12:25:41;101607.56;;;25.35;51.01
60319;BME280;46163;52.306;5.634;2022-08-20T12:28:09;101612.47;;;25.39;48.64
60319;BME280;46163;52.306;5.634;2022-08-20T12:30:36;101616.28;;;25.38;48.57
60319;BME280;46163;52.306;5.634;2022-08-20T12:33:04;101625.00;;;25.40;48.79
60319;BME280;46163;52.306;5.634;2022-08-20T12:35:31;101614.63;;;25.36;48.17
60319;BME280;46163;52.306;5.634;2022-08-20T12:38:03;101618.22;;;25.32;48.13
60319;BME280;46163;52.306;5.634;2022-08-20T12:40:29;101622.81;;;25.36;46.63
60319;BME280;46163;52.306;5.634;2022-08-20T12:42:55;101614.91;;;25.35;47.30
60319;BME280;46163;52.306;5.634;2022-08-20T12:45:20;101614.91;;;25.40;47.47
60319;BME280;46163;52.306;5.634;2022-08-20T12:47:46;101610.56;;;25.39;47.25
60319;BME280;46163;52.306;5.634;2022-08-20T12:50:20;101620.34;;;25.40;47.56
60319;BME280;46163;52.306;5.634;2022-08-20T12:52:45;101614.63;;;25.42;47.32
60319;BME280;46163;52.306;5.634;2022-08-20T12:55:13;101621.16;;;25.46;47.32
60319;BME280;46163;52.306;5.634;2022-08-20T12:57:45;101629.84;;;25.48;47.53
60319;BME280;46163;52.306;5.634;2022-08-20T13:02:41;101612.13;;;25.45;47.60
60319;BME280;46163;52.306;5.634;2022-08-20T13:05:10;101611.31;;;25.45;48.08
60319;BME280;46163;52.306;5.634;2022-08-20T13:07:40;101612.47;;;25.39;47.19
60319;BME280;46163;52.306;5.634;2022-08-20T13:10:11;101608.06;;;25.48;47.51
60319;BME280;46163;52.306;5.634;2022-08-20T13:12:37;101618.91;;;25.53;47.11
60319;BME280;46163;52.306;5.634;2022-08-20T13:15:07;101603.13;;;25.50;47.12
60319;BME280;46163;52.306;5.634;2022-08-20T13:17:33;101605.03;;;25.54;47.48
60319;BME280;46163;52.306;5.634;2022-08-20T13:20:01;101604.97;;;25.59;47.22